| time (UTC) | temp C | wind direction | speed KPH | gust KPH | rain 1hr cm | rain 24hr cm | rain mn cm | humidity % | barometer mb |
| 20260508052306 | 11 | 279 | 3.2 | 8.0 | 0.00 | 0.00 | 0.00 | 87 | 1012.0 |
| 20260508051303 | 11 | 273 | 3.2 | 4.8 | 0.00 | 0.00 | 0.00 | 87 | 1011.9 |
| 20260508050807 | 11 | 271 | 1.6 | 4.8 | 0.00 | 0.00 | 0.00 | 87 | 1012.0 |
| 20260508050303 | 11 | 273 | 1.6 | 4.8 | 0.00 | 0.00 | 0.00 | 88 | 1011.9 |
| 20260508045803 | 11 | 275 | 1.6 | 4.8 | 0.00 | 0.00 | 0.00 | 88 | 1011.8 |
| 20260508045306 | 10 | 326 | 0.0 | 1.6 | 0.00 | 0.00 | 0.00 | 88 | 1011.8 |
| 20260508044803 | 10 | 326 | 0.0 | 1.6 | 0.00 | 0.00 | 0.00 | 89 | 1011.9 |
| 20260508044303 | 10 | 326 | 0.0 | 0.0 | 0.00 | 0.00 | 0.00 | 89 | 1011.9 |
| 20260508043303 | 10 | 326 | 0.0 | 1.6 | 0.00 | 0.00 | 0.00 | 88 | 1011.8 |
| 20260508042803 | 10 | 326 | 0.0 | 1.6 | 0.00 | 0.00 | 0.00 | 88 | 1011.8 |
| 20260508042306 | 10 | 326 | 0.0 | 0.0 | 0.00 | 0.00 | 0.00 | 87 | 1011.8 |
| 20260508041804 | 11 | 326 | 0.0 | 0.0 | 0.00 | 0.00 | 0.00 | 86 | 1011.7 |
| 20260508041304 | 11 | 326 | 0.0 | 1.6 | 0.00 | 0.00 | 0.00 | 85 | 1011.6 |
| 20260508040804 | 11 | 296 | 0.0 | 3.2 | 0.00 | 0.00 | 0.00 | 85 | 1011.6 |
| 20260508040302 | 11 | 256 | 0.0 | 0.0 | 0.00 | 0.00 | 0.00 | 85 | 1011.5 |
| 20260508035803 | 11 | 257 | 0.0 | 4.8 | 0.00 | 0.00 | 0.00 | 85 | 1011.5 |
| 20260508035306 | 11 | 319 | 3.2 | 4.8 | 0.00 | 0.00 | 0.00 | 84 | 1011.5 |
| 20260508034803 | 12 | 260 | 0.0 | 1.6 | 0.00 | 0.00 | 0.00 | 84 | 1011.5 |
| 20260508034303 | 12 | 260 | 0.0 | 3.2 | 0.00 | 0.00 | 0.00 | 84 | 1011.5 |
| 20260508033804 | 12 | 257 | 1.6 | 4.8 | 0.00 | 0.00 | 0.00 | 83 | 1011.5 |
| 20260508032803 | 12 | 271 | 1.6 | 4.8 | 0.00 | 0.00 | 0.00 | 83 | 1011.4 |
| 20260508032306 | 12 | 279 | 1.6 | 4.8 | 0.00 | 0.00 | 0.00 | 83 | 1011.5 |
| 20260508031803 | 12 | 278 | 1.6 | 3.2 | 0.00 | 0.00 | 0.00 | 83 | 1011.5 |
| 20260508031304 | 12 | 276 | 0.0 | 1.6 | 0.00 | 0.00 | 0.00 | 83 | 1011.5 |
| 20260508030803 | 12 | 279 | 0.0 | 1.6 | 0.00 | 0.00 | 0.00 | 83 | 1011.5 |
| 20260508030303 | 12 | 273 | 1.6 | 4.8 | 0.00 | 0.00 | 0.00 | 83 | 1011.5 |
| 20260508025803 | 12 | 274 | 4.8 | 8.0 | 0.00 | 0.00 | 0.00 | 83 | 1011.6 |
| 20260508024804 | 12 | 274 | 1.6 | 4.8 | 0.00 | 0.00 | 0.00 | 83 | 1011.6 |
| 20260508024303 | 12 | 276 | 1.6 | 4.8 | 0.00 | 0.00 | 0.00 | 83 | 1011.6 |
| 20260508023304 | 12 | 271 | 0.0 | 4.8 | 0.00 | 0.00 | 0.00 | 83 | 1011.7 |
| 20260508022306 | 12 | 278 | 0.0 | 4.8 | 0.00 | 0.00 | 0.00 | 83 | 1011.8 |
| 20260508021803 | 12 | 262 | 0.0 | 3.2 | 0.00 | 0.00 | 0.00 | 82 | 1011.7 |
| 20260508021303 | 12 | 289 | 0.0 | 1.6 | 0.00 | 0.00 | 0.00 | 82 | 1011.7 |
| 20260508020803 | 12 | 270 | 1.6 | 4.8 | 0.00 | 0.00 | 0.00 | 82 | 1011.7 |
| 20260508015804 | 12 | 252 | 0.0 | 4.8 | 0.00 | 0.00 | 0.00 | 82 | 1011.9 |
| 20260508015306 | 12 | 255 | 0.0 | 4.8 | 0.00 | 0.00 | 0.00 | 83 | 1011.9 |
| 20260508013803 | 12 | 274 | 0.0 | 3.2 | 0.00 | 0.00 | 0.00 | 85 | 1011.9 |
| 20260508013303 | 12 | 265 | 1.6 | 3.2 | 0.00 | 0.00 | 0.00 | 85 | 1012.0 |
| 20260508012803 | 12 | 278 | 0.0 | 1.6 | 0.00 | 0.00 | 0.00 | 87 | 1012.0 |
| 20260508012307 | 12 | 299 | 0.0 | 0.0 | 0.00 | 0.00 | 0.00 | 87 | 1012.1 |
| 20260508011803 | 12 | 299 | 0.0 | 0.0 | 0.00 | 0.00 | 0.00 | 87 | 1012.2 |
| 20260508011304 | 12 | 358 | 0.0 | 0.0 | 0.00 | 0.00 | 0.00 | 86 | 1012.3 |
| 20260508010302 | 12 | 299 | 0.0 | 1.6 | 0.00 | 0.00 | 0.00 | 86 | 1012.3 |
| 20260508005803 | 12 | 279 | 0.0 | 1.6 | 0.00 | 0.00 | 0.00 | 86 | 1012.3 |
| 20260508005305 | 13 | 279 | 0.0 | 1.6 | 0.00 | 0.00 | 0.00 | 85 | 1012.3 |
| 20260508004802 | 13 | 279 | 0.0 | 1.6 | 0.00 | 0.00 | 0.00 | 86 | 1012.3 |
| 20260508003803 | 13 | 279 | 0.0 | 1.6 | 0.00 | 0.00 | 0.00 | 85 | 1012.3 |
| 20260508003302 | 13 | 279 | 0.0 | 1.6 | 0.00 | 0.00 | 0.00 | 84 | 1012.4 |
| 20260508002803 | 13 | 278 | 0.0 | 1.6 | 0.00 | 0.00 | 0.00 | 84 | 1012.3 |
| 20260508002306 | 13 | 276 | 0.0 | 1.6 | 0.00 | 0.00 | 0.00 | 84 | 1012.3 |
| 20260508001804 | 13 | 257 | 0.0 | 3.2 | 0.00 | 0.00 | 0.00 | 85 | 1012.4 |
| 20260508000802 | 13 | 331 | 0.0 | 0.0 | 0.00 | 0.00 | 0.00 | 85 | 1012.6 |
| 20260508000305 | 13 | 331 | 0.0 | 0.0 | 0.00 | 0.00 | 0.00 | 85 | 1012.6 |
| 20260507235803 | 13 | 331 | 0.0 | 0.0 | 0.00 | 0.00 | 0.00 | 85 | 1012.6 |
| 20260507235306 | 13 | 331 | 0.0 | 0.0 | 0.00 | 0.00 | 0.00 | 85 | 1012.6 |
| 20260507234802 | 13 | 331 | 0.0 | 0.0 | 0.00 | 0.00 | 0.00 | 85 | 1012.6 |
| 20260507234303 | 13 | 331 | 0.0 | 1.6 | 0.00 | 0.00 | 0.00 | 85 | 1012.7 |
| 20260507233803 | 13 | 335 | 0.0 | 0.0 | 0.00 | 0.00 | 0.00 | 84 | 1012.7 |
| 20260507233303 | 13 | 336 | 0.0 | 0.0 | 0.00 | 0.00 | 0.00 | 84 | 1012.8 |
| 20260507232803 | 13 | 336 | 0.0 | 0.0 | 0.00 | 0.00 | 0.00 | 84 | 1012.8 |
| 20260507231803 | 13 | 336 | 0.0 | 0.0 | 0.00 | 0.00 | 0.00 | 84 | 1012.9 |
| 20260507231303 | 13 | 336 | 0.0 | 0.0 | 0.00 | 0.00 | 0.00 | 83 | 1012.9 |
| 20260507230303 | 13 | 336 | 0.0 | 0.0 | 0.00 | 0.00 | 0.00 | 83 | 1013.0 |
| 20260507225802 | 13 | 337 | 0.0 | 0.0 | 0.00 | 0.00 | 0.00 | 83 | 1013.0 |
| 20260507225305 | 13 | 338 | 0.0 | 1.6 | 0.00 | 0.00 | 0.00 | 83 | 1013.0 |
| 20260507224803 | 13 | 280 | 0.0 | 0.0 | 0.00 | 0.00 | 0.00 | 83 | 1013.1 |
| 20260507223802 | 13 | 280 | 0.0 | 0.0 | 0.00 | 0.00 | 0.00 | 82 | 1013.1 |
| 20260507223303 | 13 | 280 | 0.0 | 0.0 | 0.00 | 0.00 | 0.00 | 82 | 1013.2 |
| 20260507222803 | 14 | 280 | 0.0 | 0.0 | 0.00 | 0.00 | 0.00 | 82 | 1013.2 |
| 20260507222305 | 14 | 280 | 0.0 | 0.0 | 0.00 | 0.00 | 0.00 | 81 | 1013.2 |
| 20260507221803 | 14 | 280 | 0.0 | 0.0 | 0.00 | 0.00 | 0.00 | 81 | 1013.2 |
| 20260507221303 | 14 | 280 | 0.0 | 1.6 | 0.00 | 0.00 | 0.00 | 81 | 1013.2 |
| 20260507220810 | 14 | 279 | 0.0 | 1.6 | 0.00 | 0.00 | 0.00 | 81 | 1013.3 |
| 20260507220302 | 14 | 279 | 1.6 | 3.2 | 0.00 | 0.00 | 0.00 | 80 | 1013.3 |
| 20260507215803 | 14 | 275 | 1.6 | 3.2 | 0.00 | 0.00 | 0.00 | 80 | 1013.3 |
| 20260507215306 | 15 | 334 | 0.0 | 0.0 | 0.00 | 0.00 | 0.00 | 80 | 1013.3 |
| 20260507214802 | 15 | 334 | 0.0 | 0.0 | 0.00 | 0.00 | 0.00 | 80 | 1013.3 |
| 20260507213803 | 15 | 334 | 0.0 | 0.0 | 0.00 | 0.00 | 0.00 | 79 | 1013.3 |
| 20260507213302 | 15 | 334 | 0.0 | 0.0 | 0.00 | 0.00 | 0.00 | 79 | 1013.3 |
| 20260507212803 | 15 | 334 | 0.0 | 0.0 | 0.00 | 0.00 | 0.00 | 79 | 1013.4 |
| 20260507212306 | 15 | 334 | 0.0 | 1.6 | 0.00 | 0.00 | 0.00 | 78 | 1013.3 |
| 20260507211803 | 15 | 276 | 0.0 | 0.0 | 0.00 | 0.00 | 0.00 | 78 | 1013.2 |
| 20260507210803 | 15 | 276 | 0.0 | 1.6 | 0.00 | 0.00 | 0.00 | 78 | 1013.2 |
| 20260507210302 | 15 | 276 | 0.0 | 0.0 | 0.00 | 0.00 | 0.00 | 78 | 1013.2 |
| 20260507205803 | 15 | 276 | 0.0 | 0.0 | 0.00 | 0.00 | 0.00 | 78 | 1013.2 |
| 20260507205306 | 15 | 276 | 0.0 | 1.6 | 0.00 | 0.00 | 0.00 | 78 | 1013.2 |
| 20260507204802 | 15 | 276 | 0.0 | 1.6 | 0.00 | 0.00 | 0.00 | 78 | 1013.2 |
| 20260507204304 | 15 | 276 | 0.0 | 0.0 | 0.00 | 0.00 | 0.00 | 77 | 1013.1 |
| 20260507203802 | 15 | 276 | 0.0 | 1.6 | 0.00 | 0.00 | 0.00 | 77 | 1013.0 |
| 20260507203303 | 15 | 276 | 0.0 | 1.6 | 0.00 | 0.00 | 0.00 | 77 | 1013.1 |
| 20260507202803 | 15 | 276 | 0.0 | 1.6 | 0.00 | 0.00 | 0.00 | 76 | 1013.0 |
| 20260507202306 | 15 | 276 | 0.0 | 0.0 | 0.00 | 0.00 | 0.00 | 76 | 1013.0 |
| 20260507201303 | 16 | 276 | 0.0 | 1.6 | 0.00 | 0.00 | 0.00 | 75 | 1012.9 |
| 20260507200803 | 16 | 276 | 0.0 | 1.6 | 0.00 | 0.00 | 0.00 | 75 | 1012.9 |
| 20260507200303 | 16 | 276 | 0.0 | 3.2 | 0.00 | 0.00 | 0.00 | 74 | 1012.8 |
| 20260507195803 | 16 | 286 | 0.0 | 1.6 | 0.00 | 0.00 | 0.00 | 74 | 1012.8 |
| 20260507195305 | 16 | 286 | 0.0 | 1.6 | 0.00 | 0.00 | 0.00 | 74 | 1012.7 |
| 20260507193804 | 16 | 286 | 0.0 | 3.2 | 0.00 | 0.00 | 0.00 | 74 | 1012.3 |
| 20260507193303 | 16 | 286 | 0.0 | 3.2 | 0.00 | 0.00 | 0.00 | 73 | 1012.3 |
| 20260507192803 | 16 | 286 | 0.0 | 3.2 | 0.00 | 0.00 | 0.00 | 72 | 1012.1 |
| 20260507191803 | 16 | 299 | 0.0 | 0.0 | 0.00 | 0.00 | 0.00 | 71 | 1012.0 |
| 20260507190803 | 17 | 328 | 0.0 | 0.0 | 0.00 | 0.00 | 0.00 | 71 | 1012.0 |
| 20260507190303 | 17 | 327 | 1.6 | 3.2 | 0.00 | 0.00 | 0.00 | 70 | 1011.9 |
| 20260507185803 | 17 | 326 | 1.6 | 4.8 | 0.00 | 0.00 | 0.00 | 70 | 1011.9 |
| 20260507185305 | 17 | 323 | 1.6 | 3.2 | 0.00 | 0.00 | 0.00 | 69 | 1011.8 |
| 20260507184304 | 17 | 323 | 3.2 | 4.8 | 0.00 | 0.00 | 0.00 | 69 | 1011.6 |
| 20260507183803 | 17 | 272 | 0.0 | 4.8 | 0.00 | 0.00 | 0.00 | 69 | 1011.6 |
| 20260507183303 | 17 | 325 | 1.6 | 4.8 | 0.00 | 0.00 | 0.00 | 69 | 1011.5 |
| 20260507182803 | 17 | 322 | 3.2 | 8.0 | 0.00 | 0.00 | 0.00 | 68 | 1011.5 |
| 20260507182306 | 17 | 321 | 1.6 | 8.0 | 0.00 | 0.00 | 0.00 | 67 | 1011.4 |
| 20260507181303 | 18 | 322 | 4.8 | 9.7 | 0.00 | 0.00 | 0.00 | 66 | 1011.3 |
| 20260507180803 | 18 | 325 | 1.6 | 8.0 | 0.00 | 0.00 | 0.00 | 66 | 1011.2 |
| 20260507180303 | 18 | 328 | 1.6 | 8.0 | 0.00 | 0.00 | 0.00 | 65 | 1011.1 |
| 20260507175803 | 18 | 326 | 1.6 | 4.8 | 0.00 | 0.00 | 0.00 | 65 | 1011.1 |
| 20260507175306 | 18 | 324 | 3.2 | 4.8 | 0.00 | 0.00 | 0.00 | 65 | 1011.1 |
| 20260507174803 | 18 | 282 | 1.6 | 4.8 | 0.00 | 0.00 | 0.00 | 65 | 1011.0 |
| 20260507174303 | 18 | 317 | 3.2 | 8.0 | 0.00 | 0.00 | 0.00 | 64 | 1011.0 |
| 20260507173303 | 18 | 322 | 3.2 | 4.8 | 0.00 | 0.00 | 0.00 | 63 | 1011.0 |
| 20260507172802 | 18 | 324 | 4.8 | 8.0 | 0.00 | 0.00 | 0.00 | 62 | 1010.9 |
| 20260507172307 | 18 | 320 | 3.2 | 8.0 | 0.00 | 0.00 | 0.00 | 62 | 1010.9 |
| 20260507171803 | 18 | 326 | 4.8 | 9.7 | 0.00 | 0.00 | 0.00 | 60 | 1011.0 |
| 20260507171303 | 18 | 326 | 3.2 | 4.8 | 0.00 | 0.00 | 0.00 | 62 | 1010.9 |
| 20260507170803 | 18 | 310 | 3.2 | 11.3 | 0.00 | 0.00 | 0.00 | 62 | 1010.8 |
| 20260507170303 | 18 | 319 | 4.8 | 11.3 | 0.00 | 0.00 | 0.00 | 62 | 1010.8 |
| 20260507165803 | 18 | 325 | 3.2 | 9.7 | 0.00 | 0.00 | 0.00 | 61 | 1010.7 |
| 20260507165306 | 19 | 318 | 4.8 | 9.7 | 0.00 | 0.00 | 0.00 | 61 | 1010.7 |
| 20260507164803 | 19 | 324 | 3.2 | 4.8 | 0.00 | 0.00 | 0.00 | 62 | 1010.7 |
| 20260507164303 | 19 | 321 | 3.2 | 4.8 | 0.00 | 0.00 | 0.00 | 62 | 1010.7 |
| 20260507163803 | 18 | 325 | 4.8 | 12.9 | 0.00 | 0.00 | 0.00 | 62 | 1010.7 |
| 20260507163303 | 19 | 322 | 4.8 | 11.3 | 0.00 | 0.00 | 0.00 | 62 | 1010.6 |
| 20260507162803 | 19 | 316 | 4.8 | 9.7 | 0.00 | 0.00 | 0.00 | 61 | 1010.6 |
| 20260507162306 | 19 | 323 | 3.2 | 8.0 | 0.00 | 0.00 | 0.00 | 62 | 1010.5 |
| 20260507161803 | 19 | 305 | 3.2 | 9.7 | 0.00 | 0.00 | 0.00 | 62 | 1010.5 |
| 20260507161303 | 19 | 307 | 4.8 | 12.9 | 0.00 | 0.00 | 0.00 | 62 | 1010.4 |
| 20260507160803 | 19 | 319 | 3.2 | 11.3 | 0.00 | 0.00 | 0.00 | 62 | 1010.4 |
| 20260507160303 | 19 | 321 | 4.8 | 12.9 | 0.00 | 0.00 | 0.00 | 61 | 1010.4 |
| 20260507155803 | 19 | 315 | 4.8 | 11.3 | 0.00 | 0.00 | 0.00 | 60 | 1010.5 |
| 20260507155306 | 20 | 321 | 6.4 | 12.9 | 0.00 | 0.00 | 0.00 | 59 | 1010.5 |
| 20260507154803 | 20 | 312 | 3.2 | 9.7 | 0.00 | 0.00 | 0.00 | 58 | 1010.6 |
| 20260507154303 | 20 | 316 | 3.2 | 11.3 | 0.00 | 0.00 | 0.00 | 58 | 1010.5 |
| 20260507153803 | 20 | 319 | 6.4 | 14.5 | 0.00 | 0.00 | 0.00 | 57 | 1010.6 |
| 20260507152804 | 20 | 318 | 4.8 | 14.5 | 0.00 | 0.00 | 0.00 | 56 | 1010.5 |
| 20260507151803 | 20 | 310 | 4.8 | 11.3 | 0.00 | 0.00 | 0.00 | 55 | 1010.5 |
| 20260507151303 | 20 | 322 | 4.8 | 14.5 | 0.00 | 0.00 | 0.00 | 55 | 1010.5 |
| 20260507150803 | 20 | 322 | 4.8 | 9.7 | 0.00 | 0.00 | 0.00 | 55 | 1010.5 |
| 20260507150303 | 20 | 319 | 3.2 | 9.7 | 0.00 | 0.00 | 0.00 | 56 | 1010.5 |
| 20260507145803 | 20 | 322 | 3.2 | 14.5 | 0.00 | 0.00 | 0.00 | 57 | 1010.5 |
| 20260507143803 | 21 | 320 | 4.8 | 14.5 | 0.00 | 0.00 | 0.00 | 54 | 1010.8 |
| 20260507143303 | 21 | 321 | 4.8 | 12.9 | 0.00 | 0.00 | 0.00 | 54 | 1010.8 |
| 20260507142803 | 21 | 316 | 3.2 | 12.9 | 0.00 | 0.00 | 0.00 | 55 | 1010.8 |
| 20260507142306 | 21 | 312 | 8.0 | 11.3 | 0.00 | 0.00 | 0.00 | 55 | 1010.9 |
| 20260507140803 | 21 | 322 | 3.2 | 12.9 | 0.00 | 0.00 | 0.00 | 54 | 1011.1 |
| 20260507135804 | 21 | 323 | 4.8 | 19.3 | 0.00 | 0.00 | 0.00 | 54 | 1011.2 |
| 20260507134803 | 21 | 318 | 6.4 | 14.5 | 0.00 | 0.00 | 0.00 | 53 | 1011.3 |
| 20260507134303 | 21 | 317 | 4.8 | 14.5 | 0.00 | 0.00 | 0.00 | 54 | 1011.1 |
| 20260507133803 | 21 | 315 | 4.8 | 11.3 | 0.00 | 0.00 | 0.00 | 53 | 1011.3 |
| 20260507133303 | 21 | 318 | 9.7 | 20.9 | 0.00 | 0.00 | 0.00 | 52 | 1011.4 |
| 20260507132803 | 21 | 317 | 4.8 | 16.1 | 0.00 | 0.00 | 0.00 | 54 | 1011.4 |
| 20260507132307 | 21 | 316 | 4.8 | 14.5 | 0.00 | 0.00 | 0.00 | 55 | 1011.4 |
| 20260507131303 | 21 | 304 | 3.2 | 12.9 | 0.00 | 0.00 | 0.00 | 54 | 1011.4 |
| 20260507130803 | 21 | 305 | 6.4 | 14.5 | 0.00 | 0.00 | 0.00 | 54 | 1011.5 |
| 20260507130303 | 21 | 308 | 6.4 | 14.5 | 0.00 | 0.00 | 0.00 | 54 | 1011.5 |
| 20260507125803 | 21 | 315 | 4.8 | 12.9 | 0.00 | 0.00 | 0.00 | 54 | 1011.5 |
| 20260507125306 | 21 | 320 | 6.4 | 19.3 | 0.00 | 0.00 | 0.00 | 54 | 1011.6 |
| 20260507124803 | 22 | 304 | 6.4 | 14.5 | 0.00 | 0.00 | 0.00 | 53 | 1011.8 |
| 20260507124304 | 22 | 312 | 4.8 | 20.9 | 0.00 | 0.00 | 0.00 | 54 | 1011.7 |
| 20260507123803 | 22 | 324 | 4.8 | 14.5 | 0.00 | 0.00 | 0.00 | 53 | 1011.7 |
| 20260507122803 | 22 | 322 | 6.4 | 12.9 | 0.00 | 0.00 | 0.00 | 53 | 1011.7 |
| 20260507122306 | 22 | 309 | 6.4 | 14.5 | 0.00 | 0.00 | 0.00 | 53 | 1011.8 |
| 20260507121803 | 22 | 313 | 8.0 | 16.1 | 0.00 | 0.00 | 0.00 | 52 | 1011.8 |
| 20260507121303 | 22 | 321 | 6.4 | 16.1 | 0.00 | 0.00 | 0.00 | 50 | 1011.8 |
| 20260507120803 | 22 | 318 | 6.4 | 12.9 | 0.00 | 0.00 | 0.00 | 50 | 1011.8 |
| 20260507120303 | 22 | 311 | 4.8 | 12.9 | 0.00 | 0.00 | 0.00 | 49 | 1011.8 |
| 20260507115803 | 22 | 315 | 4.8 | 19.3 | 0.00 | 0.00 | 0.00 | 50 | 1011.8 |
| 20260507115306 | 22 | 321 | 6.4 | 12.9 | 0.00 | 0.00 | 0.00 | 49 | 1011.8 |
| 20260507114804 | 22 | 313 | 4.8 | 8.0 | 0.00 | 0.00 | 0.00 | 50 | 1011.8 |
| 20260507114303 | 22 | 311 | 4.8 | 12.9 | 0.00 | 0.00 | 0.00 | 49 | 1011.9 |
| 20260507113804 | 22 | 317 | 3.2 | 8.0 | 0.00 | 0.00 | 0.00 | 52 | 1011.9 |
| 20260507112306 | 21 | 321 | 4.8 | 14.5 | 0.00 | 0.00 | 0.00 | 53 | 1012.1 |
| 20260507111803 | 21 | 321 | 3.2 | 4.8 | 0.00 | 0.00 | 0.00 | 54 | 1012.3 |
| 20260507111304 | 21 | 310 | 3.2 | 11.3 | 0.00 | 0.00 | 0.00 | 54 | 1012.3 |
| 20260507110803 | 21 | 323 | 6.4 | 11.3 | 0.00 | 0.00 | 0.00 | 53 | 1012.4 |
| 20260507110303 | 21 | 317 | 4.8 | 11.3 | 0.00 | 0.00 | 0.00 | 54 | 1012.5 |
| 20260507105803 | 21 | 316 | 3.2 | 11.3 | 0.00 | 0.00 | 0.00 | 55 | 1012.5 |
| 20260507105306 | 21 | 310 | 4.8 | 20.9 | 0.00 | 0.00 | 0.00 | 53 | 1012.5 |
| 20260507104303 | 21 | 324 | 3.2 | 9.7 | 0.00 | 0.00 | 0.00 | 53 | 1012.6 |
| 20260507103803 | 21 | 322 | 3.2 | 9.7 | 0.00 | 0.00 | 0.00 | 54 | 1012.7 |
| 20260507103303 | 21 | 322 | 4.8 | 9.7 | 0.00 | 0.00 | 0.00 | 54 | 1012.7 |
| 20260507102804 | 21 | 333 | 3.2 | 8.0 | 0.00 | 0.00 | 0.00 | 54 | 1012.8 |
| 20260507102306 | 21 | 322 | 4.8 | 8.0 | 0.00 | 0.00 | 0.00 | 56 | 1012.9 |
| 20260507101304 | 20 | 321 | 3.2 | 11.3 | 0.00 | 0.00 | 0.00 | 59 | 1012.9 |
| 20260507100803 | 19 | 323 | 3.2 | 4.8 | 0.00 | 0.00 | 0.00 | 62 | 1013.0 |
| 20260507100304 | 19 | 319 | 3.2 | 11.3 | 0.00 | 0.00 | 0.00 | 63 | 1013.1 |
| 20260507095305 | 20 | 318 | 3.2 | 4.8 | 0.00 | 0.00 | 0.00 | 62 | 1013.0 |
| 20260507094803 | 20 | 288 | 1.6 | 4.8 | 0.00 | 0.00 | 0.00 | 61 | 1013.0 |
| 20260507094303 | 20 | 325 | 1.6 | 4.8 | 0.00 | 0.00 | 0.00 | 61 | 1013.1 |
| 20260507093804 | 19 | 319 | 0.0 | 4.8 | 0.00 | 0.00 | 0.00 | 61 | 1013.1 |
| 20260507093303 | 19 | 317 | 0.0 | 3.2 | 0.00 | 0.00 | 0.00 | 62 | 1013.2 |
| 20260507092804 | 20 | 332 | 1.6 | 4.8 | 0.00 | 0.00 | 0.00 | 61 | 1013.2 |
| 20260507092306 | 20 | 326 | 3.2 | 4.8 | 0.00 | 0.00 | 0.00 | 59 | 1013.2 |
| 20260507091804 | 20 | 330 | 0.0 | 1.6 | 0.00 | 0.00 | 0.00 | 60 | 1013.2 |
| 20260507090803 | 19 | 309 | 1.6 | 8.0 | 0.00 | 0.00 | 0.00 | 63 | 1013.1 |
| 20260507090303 | 18 | 313 | 1.6 | 4.8 | 0.00 | 0.00 | 0.00 | 64 | 1013.0 |
| 20260507085803 | 18 | 274 | 0.0 | 3.2 | 0.00 | 0.00 | 0.00 | 65 | 1013.0 |
| 20260507085306 | 18 | 320 | 1.6 | 3.2 | 0.00 | 0.00 | 0.00 | 65 | 1013.0 |
| 20260507084803 | 18 | 312 | 0.0 | 3.2 | 0.00 | 0.00 | 0.00 | 66 | 1013.0 |
| 20260507084304 | 18 | 310 | 0.0 | 3.2 | 0.00 | 0.00 | 0.00 | 67 | 1013.1 |
| 20260507083803 | 18 | 327 | 0.0 | 4.8 | 0.00 | 0.00 | 0.00 | 66 | 1013.2 |
| 20260507082804 | 18 | 324 | 1.6 | 4.8 | 0.00 | 0.00 | 0.00 | 65 | 1013.1 |
| 20260507082306 | 18 | 260 | 0.0 | 3.2 | 0.00 | 0.00 | 0.00 | 65 | 1013.1 |
| 20260507081803 | 18 | 326 | 0.0 | 3.2 | 0.00 | 0.00 | 0.00 | 65 | 1013.2 |
| 20260507081303 | 18 | 324 | 0.0 | 1.6 | 0.00 | 0.00 | 0.00 | 66 | 1013.2 |
| 20260507080804 | 17 | 324 | 0.0 | 1.6 | 0.00 | 0.00 | 0.00 | 65 | 1013.2 |
| 20260507080303 | 17 | 324 | 0.0 | 1.6 | 0.00 | 0.00 | 0.00 | 65 | 1013.3 |
| 20260507075804 | 17 | 325 | 1.6 | 3.2 | 0.00 | 0.00 | 0.00 | 65 | 1013.4 |
| 20260507075306 | 17 | 276 | 0.0 | 1.6 | 0.00 | 0.00 | 0.00 | 66 | 1013.5 |
| 20260507074804 | 16 | 276 | 0.0 | 0.0 | 0.00 | 0.00 | 0.00 | 67 | 1013.6 |
| 20260507074303 | 16 | 276 | 0.0 | 1.6 | 0.00 | 0.00 | 0.00 | 70 | 1013.6 |
| 20260507073804 | 15 | 276 | 0.0 | 1.6 | 0.00 | 0.00 | 0.00 | 71 | 1013.7 |
| 20260507073304 | 15 | 276 | 0.0 | 0.0 | 0.00 | 0.00 | 0.00 | 73 | 1013.6 |
| 20260507072804 | 14 | 276 | 0.0 | 0.0 | 0.00 | 0.00 | 0.00 | 74 | 1013.6 |
| 20260507072306 | 14 | 276 | 0.0 | 0.0 | 0.00 | 0.00 | 0.00 | 75 | 1013.6 |
| 20260507071803 | 13 | 276 | 0.0 | 1.6 | 0.00 | 0.00 | 0.00 | 76 | 1013.6 |
| 20260507071303 | 13 | 276 | 0.0 | 3.2 | 0.00 | 0.00 | 0.00 | 77 | 1013.6 |
| 20260507070804 | 13 | 272 | 0.0 | 0.0 | 0.00 | 0.00 | 0.00 | 77 | 1013.7 |
| 20260507070304 | 13 | 272 | 0.0 | 0.0 | 0.00 | 0.00 | 0.00 | 79 | 1013.6 |
| 20260507065803 | 13 | 274 | 0.0 | 0.0 | 0.00 | 0.00 | 0.00 | 79 | 1013.5 |
| 20260507065306 | 12 | 331 | 0.0 | 0.0 | 0.00 | 0.00 | 0.00 | 79 | 1013.5 |
| 20260507064804 | 12 | 324 | 0.0 | 0.0 | 0.00 | 0.00 | 0.00 | 79 | 1013.5 |
| 20260507064303 | 12 | 324 | 0.0 | 0.0 | 0.00 | 0.00 | 0.00 | 79 | 1013.4 |
| 20260507063804 | 12 | 324 | 0.0 | 0.0 | 0.00 | 0.00 | 0.00 | 80 | 1013.3 |
| 20260507062804 | 12 | 324 | 0.0 | 3.2 | 0.00 | 0.00 | 0.00 | 83 | 1013.3 |
| 20260507062306 | 12 | 323 | 1.6 | 3.2 | 0.00 | 0.00 | 0.00 | 83 | 1013.2 |
| 20260507061803 | 11 | 328 | 0.0 | 3.2 | 0.00 | 0.00 | 0.00 | 83 | 1013.1 |
| 20260507060803 | 11 | 324 | 0.0 | 1.6 | 0.00 | 0.00 | 0.00 | 86 | 1013.1 |
| 20260507060303 | 11 | 324 | 1.6 | 3.2 | 0.00 | 0.00 | 0.00 | 87 | 1013.0 |
| 20260507055803 | 10 | 283 | 0.0 | 1.6 | 0.00 | 0.00 | 0.00 | 88 | 1013.0 |
| 20260507054804 | 10 | 283 | 0.0 | 0.0 | 0.00 | 0.00 | 0.00 | 89 | 1013.0 |
| 20260507054304 | 10 | 283 | 0.0 | 0.0 | 0.00 | 0.00 | 0.00 | 88 | 1012.9 |
| 20260507053803 | 10 | 283 | 0.0 | 0.0 | 0.00 | 0.00 | 0.00 | 88 | 1012.9 |
| 20260507053304 | 10 | 283 | 0.0 | 0.0 | 0.00 | 0.00 | 0.00 | 88 | 1012.8 |
| 20260507052803 | 10 | 283 | 0.0 | 0.0 | 0.00 | 0.00 | 0.00 | 88 | 1012.8 |